createdAt,value
2019-01-25T00:00:58.743Z,47.00
2019-01-25T00:03:32.263Z,45.30
2019-01-25T00:06:05.974Z,44.67
2019-01-25T00:08:39.545Z,44.33
2019-01-25T00:11:13.075Z,48.03
2019-01-25T00:13:46.648Z,42.33
2019-01-25T00:16:20.184Z,44.40
2019-01-25T00:18:53.721Z,44.73
2019-01-25T00:21:27.418Z,47.70
2019-01-25T00:24:00.948Z,47.40
2019-01-25T00:26:34.480Z,43.30
2019-01-25T00:29:07.995Z,49.03
2019-01-25T00:31:41.937Z,43.40
2019-01-25T00:34:15.357Z,43.07
2019-01-25T00:36:48.808Z,42.57
2019-01-25T00:39:22.308Z,45.00
2019-01-25T00:41:55.785Z,43.00
2019-01-25T00:44:29.288Z,45.50
2019-01-25T00:47:03.126Z,40.43
2019-01-25T00:49:36.829Z,42.87
2019-01-25T00:52:10.355Z,41.47
2019-01-25T00:54:43.842Z,42.50
2019-01-25T00:57:17.322Z,48.03
2019-01-25T00:59:50.742Z,47.23
2019-01-25T01:02:24.632Z,43.13
2019-01-25T01:04:58.061Z,45.63
2019-01-25T01:07:31.588Z,45.30
2019-01-25T01:10:14.029Z,46.27
2019-01-25T01:12:42.996Z,43.00
2019-01-25T01:15:16.600Z,45.87
2019-01-25T01:17:50.226Z,41.10
2019-01-25T01:20:23.715Z,48.70
2019-01-25T01:22:57.169Z,40.97
2019-01-25T01:25:30.585Z,44.60
2019-01-25T01:28:04.289Z,44.17
2019-01-25T01:30:37.769Z,43.57
2019-01-25T01:33:11.240Z,45.17
2019-01-25T01:35:44.722Z,43.73
2019-01-25T01:38:18.252Z,47.27
2019-01-25T01:40:51.749Z,42.03
2019-01-25T01:43:25.150Z,44.43
2019-01-25T01:45:58.576Z,43.30
2019-01-25T01:48:32.038Z,41.77
2019-01-25T01:51:05.532Z,43.13
2019-01-25T01:53:38.997Z,42.13
2019-01-25T01:56:12.425Z,42.77
2019-01-25T01:58:45.806Z,42.70
2019-01-25T02:01:19.303Z,43.03
2019-01-25T02:03:52.899Z,42.20
2019-01-25T02:06:26.388Z,46.10
2019-01-25T02:08:59.916Z,43.93
2019-01-25T02:11:33.425Z,44.00
2019-01-25T02:14:07.020Z,42.07
2019-01-25T02:16:40.504Z,41.97
2019-01-25T02:19:13.965Z,45.50
2019-01-25T02:21:47.391Z,43.67
2019-01-25T02:24:20.846Z,41.53
2019-01-25T02:26:54.334Z,42.77
2019-01-25T02:29:27.893Z,43.43
2019-01-25T02:32:01.314Z,43.03
2019-01-25T02:34:34.995Z,48.43
2019-01-25T02:37:08.410Z,44.90
2019-01-25T02:39:41.927Z,46.07
2019-01-25T02:42:15.350Z,44.43
2019-01-25T02:44:48.957Z,45.60
2019-01-25T02:47:22.392Z,43.10
2019-01-25T02:49:56.120Z,41.33
2019-01-25T02:52:29.508Z,43.83
2019-01-25T02:55:02.957Z,45.33
2019-01-25T02:57:36.420Z,41.90
2019-01-25T03:00:23.902Z,42.47
2019-01-25T03:02:57.406Z,42.77
2019-01-25T03:05:30.885Z,42.70
2019-01-25T03:08:04.370Z,45.87
2019-01-25T03:10:37.828Z,44.47
2019-01-25T03:13:11.318Z,46.93
2019-01-25T03:15:44.927Z,47.57
2019-01-25T03:18:18.357Z,44.63
2019-01-25T03:20:51.803Z,45.00
2019-01-25T03:23:25.220Z,48.70
2019-01-25T03:25:58.749Z,43.00
2019-01-25T03:28:32.165Z,46.47
2019-01-25T03:31:05.797Z,41.17
2019-01-25T03:33:39.264Z,42.40
2019-01-25T03:36:12.729Z,44.43
2019-01-25T03:38:46.151Z,42.07
2019-01-25T03:41:19.694Z,41.40
2019-01-25T03:43:53.104Z,47.07
2019-01-25T03:46:26.575Z,48.50
2019-01-25T03:48:59.995Z,42.03
2019-01-25T03:51:33.467Z,44.60
2019-01-25T03:54:06.945Z,44.33
2019-01-25T03:56:40.422Z,43.67
2019-01-25T03:59:13.831Z,46.90
2019-01-25T04:01:47.554Z,46.60
2019-01-25T04:04:21.021Z,46.23
2019-01-25T04:06:54.540Z,44.87
2019-01-25T04:09:27.964Z,50.23
2019-01-25T04:12:01.515Z,47.10
2019-01-25T04:14:34.941Z,48.93
2019-01-25T04:17:08.474Z,44.30
2019-01-25T04:19:41.987Z,44.00
2019-01-25T04:22:15.444Z,46.23
2019-01-25T04:24:48.864Z,46.30
2019-01-25T04:27:22.404Z,46.27
2019-01-25T04:29:55.754Z,46.87
2019-01-25T04:32:29.386Z,50.00
2019-01-25T04:35:02.981Z,45.77
2019-01-25T04:37:36.522Z,45.30
2019-01-25T04:40:12.832Z,51.40
2019-01-25T04:42:46.847Z,48.73
2019-01-25T04:45:23.636Z,52.13
2019-01-25T04:47:57.155Z,53.63
2019-01-25T04:50:30.575Z,46.83
2019-01-25T04:53:04.248Z,47.50
2019-01-25T04:55:37.732Z,48.53
2019-01-25T04:58:13.746Z,50.70
2019-01-25T05:00:47.305Z,53.83
2019-01-25T05:03:20.915Z,51.00
2019-01-25T05:05:54.412Z,48.20
2019-01-25T05:08:30.695Z,50.10
2019-01-25T05:11:04.285Z,50.13
2019-01-25T05:13:37.729Z,47.77
2019-01-25T05:16:13.283Z,48.10
2019-01-25T05:18:46.761Z,49.27
2019-01-25T05:21:20.858Z,49.07
2019-01-25T05:23:54.561Z,46.17
2019-01-25T05:26:28.002Z,54.63
2019-01-25T05:29:01.878Z,47.80
2019-01-25T05:31:35.296Z,55.00
2019-01-25T05:34:09.282Z,53.20
2019-01-25T05:36:42.774Z,56.17
2019-01-25T05:39:16.250Z,49.40
2019-01-25T05:41:52.078Z,55.20
2019-01-25T05:44:25.465Z,52.00
2019-01-25T05:46:58.892Z,55.60
2019-01-25T05:49:32.351Z,56.13
2019-01-25T05:52:07.919Z,51.80
2019-01-25T05:54:41.454Z,52.80
2019-01-25T05:57:14.952Z,56.07
2019-01-25T05:59:48.485Z,52.13
2019-01-25T06:02:21.928Z,52.37
2019-01-25T06:04:55.446Z,52.73
2019-01-25T06:07:28.862Z,52.23
2019-01-25T06:10:02.390Z,57.90
2019-01-25T06:12:35.870Z,59.17
2019-01-25T06:15:11.653Z,53.97
2019-01-25T06:17:45.069Z,50.97
2019-01-25T06:20:18.592Z,53.30
2019-01-25T06:22:54.712Z,47.87
2019-01-25T06:25:28.778Z,49.87
2019-01-25T06:28:04.731Z,50.93
2019-01-25T06:30:38.332Z,52.80
2019-01-25T06:33:11.746Z,52.57
2019-01-25T06:35:45.364Z,54.40
2019-01-25T06:38:18.858Z,56.30
2019-01-25T06:40:52.323Z,53.50
2019-01-25T06:43:25.877Z,48.47
2019-01-25T06:45:59.259Z,51.03
2019-01-25T06:48:32.677Z,51.37
2019-01-25T06:51:06.195Z,51.80
2019-01-25T06:53:39.617Z,50.20
2019-01-25T06:56:13.069Z,55.53
2019-01-25T06:58:50.736Z,48.53
2019-01-25T07:01:28.350Z,57.43
2019-01-25T07:04:01.836Z,49.83
2019-01-25T07:06:35.300Z,50.23
2019-01-25T07:09:09.387Z,50.80
2019-01-25T07:11:42.944Z,49.97
2019-01-25T07:14:16.426Z,50.20
2019-01-25T07:16:50.054Z,49.13
2019-01-25T07:19:23.473Z,56.80
2019-01-25T07:21:57.326Z,51.23
2019-01-25T07:24:30.831Z,52.00
2019-01-25T07:27:04.438Z,53.00
2019-01-25T07:29:37.953Z,55.37
2019-01-25T07:32:12.041Z,53.23
2019-01-25T07:34:45.496Z,59.33
2019-01-25T07:37:18.867Z,54.30
2019-01-25T07:39:52.286Z,50.40
2019-01-25T07:42:25.839Z,53.27
2019-01-25T07:44:59.307Z,54.37
2019-01-25T07:47:32.888Z,55.57
2019-01-25T07:50:08.823Z,49.23
2019-01-25T07:52:42.490Z,50.37
2019-01-25T07:55:16.034Z,51.73
2019-01-25T07:57:49.455Z,53.73
2019-01-25T08:00:22.960Z,55.33
2019-01-25T08:02:56.430Z,54.67
2019-01-25T08:05:29.929Z,56.23
2019-01-25T08:08:03.515Z,53.57
2019-01-25T08:10:36.946Z,58.07
2019-01-25T08:13:10.587Z,58.77
2019-01-25T08:15:44.008Z,57.17
2019-01-25T08:18:17.471Z,56.77
2019-01-25T08:20:50.879Z,52.83
2019-01-25T08:23:24.488Z,56.57
2019-01-25T08:25:58.017Z,51.93
2019-01-25T08:28:31.563Z,59.23
2019-01-25T08:31:05.056Z,60.10
2019-01-25T08:33:38.510Z,60.83
2019-01-25T08:36:11.945Z,63.77
2019-01-25T08:38:45.402Z,64.37
2019-01-25T08:41:18.800Z,65.43
2019-01-25T08:43:52.289Z,66.23
2019-01-25T08:46:25.758Z,63.50
2019-01-25T08:48:59.173Z,60.43
2019-01-25T08:51:32.659Z,63.47
2019-01-25T08:54:06.420Z,64.53
2019-01-25T08:56:39.870Z,65.00
2019-01-25T08:59:13.419Z,59.80
2019-01-25T09:01:47.028Z,67.73
2019-01-25T09:04:20.414Z,68.83
2019-01-25T09:06:53.831Z,68.63
2019-01-25T09:09:27.366Z,63.00
2019-01-25T09:12:00.767Z,66.77
2019-01-25T09:14:34.253Z,66.30
2019-01-25T09:17:07.697Z,67.80
2019-01-25T09:19:41.221Z,63.00
2019-01-25T09:22:14.644Z,60.43
2019-01-25T09:24:48.182Z,58.00
2019-01-25T09:27:21.596Z,59.90
2019-01-25T09:29:55.139Z,58.67
2019-01-25T09:32:28.563Z,54.87
2019-01-25T09:35:02.196Z,57.63
2019-01-25T09:37:35.691Z,54.10
2019-01-25T09:40:17.719Z,60.27
2019-01-25T09:42:51.626Z,61.53
2019-01-25T09:45:25.080Z,57.73
2019-01-25T09:47:58.500Z,61.13
2019-01-25T09:50:32.053Z,55.23
2019-01-25T09:53:05.540Z,62.47
2019-01-25T09:55:39.005Z,64.07
2019-01-25T09:58:15.796Z,67.17
2019-01-25T10:00:55.523Z,61.63
2019-01-25T10:03:28.948Z,65.83
2019-01-25T10:06:02.424Z,69.73
2019-01-25T10:08:35.901Z,68.90
2019-01-25T10:11:09.746Z,73.90
2019-01-25T10:13:43.194Z,69.27
2019-01-25T10:16:16.722Z,77.90
2019-01-25T10:18:50.221Z,68.37
2019-01-25T10:21:23.741Z,74.33
2019-01-25T10:23:57.165Z,72.20
2019-01-25T10:26:30.626Z,74.73
2019-01-25T10:29:04.110Z,75.80
2019-01-25T10:31:37.607Z,71.67
2019-01-25T10:34:10.966Z,76.43
2019-01-25T10:36:44.578Z,66.47
2019-01-25T10:39:18.006Z,73.90
2019-01-25T10:41:51.730Z,67.23
2019-01-25T10:44:25.219Z,68.87
2019-01-25T10:46:58.680Z,69.00
2019-01-25T10:49:32.134Z,73.60
2019-01-25T10:52:05.823Z,77.37
2019-01-25T10:54:39.498Z,74.27
2019-01-25T10:57:12.985Z,69.03
2019-01-25T10:59:46.610Z,76.00
2019-01-25T11:02:20.023Z,78.67
2019-01-25T11:04:53.481Z,73.07
2019-01-25T11:07:26.938Z,78.93
2019-01-25T11:10:00.782Z,73.27
2019-01-25T11:12:34.292Z,77.63
2019-01-25T11:15:11.061Z,77.37
2019-01-25T11:17:44.501Z,85.40
2019-01-25T11:20:19.792Z,83.80
2019-01-25T11:22:53.575Z,87.10
2019-01-25T11:25:29.858Z,83.07
2019-01-25T11:28:03.345Z,92.07
2019-01-25T11:30:36.801Z,94.27
2019-01-25T11:33:10.220Z,96.67
2019-01-25T11:35:43.764Z,101.80
2019-01-25T11:38:17.196Z,102.97
2019-01-25T11:40:50.668Z,99.07
2019-01-25T11:43:24.084Z,101.03
2019-01-25T11:45:57.993Z,108.47
2019-01-25T11:48:31.421Z,108.20
2019-01-25T11:51:05.297Z,99.60
2019-01-25T11:53:38.735Z,105.33
2019-01-25T11:56:12.370Z,110.70
2019-01-25T11:58:45.850Z,97.43
2019-01-25T12:01:19.373Z,110.43
2019-01-25T12:03:53.067Z,104.17
2019-01-25T12:06:26.606Z,107.77
2019-01-25T12:09:00.027Z,98.73
2019-01-25T12:11:33.555Z,101.67
2019-01-25T12:14:07.282Z,105.80
2019-01-25T12:16:40.737Z,96.00
2019-01-25T12:19:14.171Z,95.80
2019-01-25T12:21:47.683Z,101.07
2019-01-25T12:24:21.111Z,98.63
2019-01-25T12:26:54.581Z,100.73
2019-01-25T12:29:28.140Z,97.83
2019-01-25T12:32:01.729Z,97.37
2019-01-25T12:34:35.081Z,99.17
2019-01-25T12:37:08.716Z,96.17
2019-01-25T12:39:42.073Z,95.17
2019-01-25T12:42:15.570Z,95.40
2019-01-25T12:44:48.941Z,88.47
2019-01-25T12:47:22.806Z,99.27
2019-01-25T12:49:56.233Z,97.70
2019-01-25T12:52:30.010Z,92.90
2019-01-25T12:55:03.508Z,84.83
2019-01-25T12:57:36.990Z,88.67
2019-01-25T13:00:13.754Z,84.37
2019-01-25T13:02:47.355Z,81.00
2019-01-25T13:05:21.753Z,79.07
2019-01-25T13:07:55.211Z,67.63
2019-01-25T13:10:29.002Z,73.13
2019-01-25T13:13:02.623Z,78.27
2019-01-25T13:15:36.274Z,69.70
2019-01-25T13:18:09.803Z,73.47
2019-01-25T13:20:43.297Z,75.80
2019-01-25T13:23:16.840Z,78.13
2019-01-25T13:25:50.335Z,75.23
2019-01-25T13:28:23.833Z,76.30
2019-01-25T13:30:57.330Z,72.00
2019-01-25T13:33:31.183Z,73.67
2019-01-25T13:36:25.452Z,73.73
2019-01-25T13:38:58.826Z,85.17
2019-01-25T13:41:32.243Z,79.20
2019-01-25T13:44:05.976Z,77.07
2019-01-25T13:46:39.473Z,78.87
2019-01-25T13:49:13.255Z,80.73
2019-01-25T13:51:46.744Z,80.27
2019-01-25T13:54:20.204Z,76.77
2019-01-25T13:56:53.549Z,81.13
2019-01-25T13:59:26.947Z,83.37
2019-01-25T14:02:00.433Z,77.03
2019-01-25T14:04:33.892Z,69.03
2019-01-25T14:07:07.375Z,74.40
2019-01-25T14:09:40.842Z,70.20
2019-01-25T14:12:14.183Z,73.13
2019-01-25T14:14:49.049Z,69.20
2019-01-25T14:17:22.621Z,65.30
2019-01-25T14:19:56.440Z,69.20
2019-01-25T14:22:29.849Z,65.90
2019-01-25T14:25:03.406Z,70.47
2019-01-25T14:27:36.887Z,74.60
2019-01-25T14:30:19.038Z,72.30
2019-01-25T14:32:52.467Z,67.50
2019-01-25T14:35:26.005Z,67.43
2019-01-25T14:37:59.504Z,69.00
2019-01-25T14:40:32.953Z,65.57
2019-01-25T14:43:06.360Z,62.93
2019-01-25T14:45:40.182Z,62.43
2019-01-25T14:48:13.602Z,63.50
2019-01-25T14:50:47.114Z,64.13
2019-01-25T14:53:20.537Z,63.10
2019-01-25T14:55:54.368Z,66.40
2019-01-25T14:58:27.858Z,63.93
2019-01-25T15:01:01.319Z,57.77
2019-01-25T15:03:34.738Z,55.90
2019-01-25T15:06:08.180Z,55.07
2019-01-25T15:08:41.848Z,58.70
2019-01-25T15:11:15.518Z,50.97
2019-01-25T15:13:49.867Z,50.63
2019-01-25T15:16:23.446Z,56.40
2019-01-25T15:18:56.864Z,52.80
2019-01-25T15:56:29.255Z,57.90
2019-01-25T15:59:02.892Z,54.30
2019-01-25T16:01:36.575Z,55.57
2019-01-25T16:04:10.055Z,51.27
2019-01-25T16:06:43.651Z,54.23
2019-01-25T16:09:23.312Z,55.03
2019-01-25T16:11:52.318Z,55.57
2019-01-25T16:14:25.667Z,55.07
2019-01-25T16:16:59.231Z,55.50
2019-01-25T16:19:32.674Z,54.53
2019-01-25T16:22:06.380Z,62.27
2019-01-25T16:24:39.918Z,63.30
2019-01-25T16:27:13.752Z,62.00
2019-01-25T16:29:47.175Z,66.47
2019-01-25T16:32:20.700Z,54.60
2019-01-25T16:34:54.361Z,54.57
2019-01-25T16:37:28.019Z,56.03
2019-01-25T16:40:01.509Z,52.90
2019-01-25T16:42:34.942Z,57.23
2019-01-25T16:45:20.332Z,54.87
2019-01-25T16:47:53.819Z,54.80
2019-01-25T16:50:27.681Z,58.40
2019-01-25T16:53:01.173Z,51.50
2019-01-25T16:55:35.002Z,59.03
2019-01-25T16:58:08.599Z,54.90
2019-01-25T17:00:50.929Z,57.10
2019-01-25T17:03:26.451Z,54.83
2019-01-25T17:06:00.124Z,55.00
2019-01-25T17:08:34.480Z,53.93
2019-01-25T17:11:08.166Z,54.03
2019-01-25T17:13:41.736Z,52.83
2019-01-25T17:16:15.663Z,54.03
2019-01-25T17:18:49.409Z,57.93
2019-01-25T17:21:23.412Z,56.87
2019-01-25T17:23:59.656Z,54.57
2019-01-25T17:26:33.563Z,52.57
2019-01-25T17:31:27.132Z,54.90
2019-01-25T17:34:00.768Z,54.43
2019-01-25T17:36:34.511Z,59.73
2019-01-25T17:39:11.252Z,56.20
2019-01-25T17:41:45.104Z,59.53
2019-01-25T17:44:18.860Z,58.10
2019-01-25T17:46:52.429Z,55.33
2019-01-25T17:49:26.035Z,52.60
2019-01-25T17:51:59.761Z,50.37
2019-01-25T17:54:33.344Z,58.10
2019-01-25T17:57:07.141Z,50.13
2019-01-25T17:59:40.702Z,51.73
2019-01-25T18:02:14.452Z,51.50
2019-01-25T18:04:48.297Z,51.83
2019-01-25T18:07:21.843Z,51.90
2019-01-25T18:09:55.386Z,53.73
2019-01-25T18:12:29.007Z,53.90
2019-01-25T18:15:02.747Z,48.30
2019-01-25T18:17:36.696Z,46.53
2019-01-25T18:20:13.367Z,44.43
2019-01-25T18:22:46.999Z,49.03
2019-01-25T18:25:32.927Z,44.30
2019-01-25T18:28:09.842Z,47.33
2019-01-25T18:30:46.789Z,47.97
2019-01-25T18:33:20.618Z,47.80
2019-01-25T18:35:54.106Z,45.50
2019-01-25T18:38:27.733Z,47.33
2019-01-25T18:41:01.213Z,44.67
2019-01-25T18:43:34.562Z,47.67
2019-01-25T18:46:08.314Z,43.07
2019-01-25T18:48:41.742Z,44.33
2019-01-25T18:51:15.246Z,42.87
2019-01-25T18:53:49.625Z,45.17
2019-01-25T18:56:23.304Z,47.20
2019-01-25T18:58:56.861Z,52.40
2019-01-25T19:01:30.326Z,50.43
2019-01-25T19:04:03.783Z,44.00
2019-01-25T19:06:37.233Z,46.47
2019-01-25T19:09:10.657Z,46.97
2019-01-25T19:11:44.054Z,49.43
2019-01-25T19:14:17.405Z,51.37
2019-01-25T19:16:50.838Z,45.53
2019-01-25T19:19:24.251Z,48.57
2019-01-25T19:21:57.691Z,46.23
2019-01-25T19:24:31.125Z,48.37
2019-01-25T19:27:04.576Z,45.93
2019-01-25T19:29:37.992Z,50.10
2019-01-25T19:32:11.439Z,49.20
2019-01-25T19:34:44.936Z,46.87
2019-01-25T19:37:18.428Z,50.17
2019-01-25T19:39:51.848Z,48.20
2019-01-25T19:42:25.290Z,46.90
2019-01-25T19:44:58.727Z,48.83
2019-01-25T19:47:32.188Z,52.63
2019-01-25T19:50:08.876Z,51.57
2019-01-25T19:52:42.397Z,51.93
2019-01-25T19:55:18.577Z,52.57
2019-01-25T19:57:52.081Z,50.67
2019-01-25T20:00:37.188Z,52.47
2019-01-25T20:03:10.715Z,48.83
2019-01-25T20:05:44.285Z,50.47
2019-01-25T20:08:17.986Z,53.37
2019-01-25T20:10:51.636Z,51.13
2019-01-25T20:13:25.372Z,54.83
2019-01-25T20:15:58.916Z,53.70
2019-01-25T20:18:32.604Z,52.27
2019-01-25T20:21:06.182Z,57.77
2019-01-25T20:23:39.709Z,60.43
2019-01-25T20:26:13.188Z,55.37
2019-01-25T20:28:46.560Z,58.80
2019-01-25T20:31:19.984Z,55.57
2019-01-25T20:33:53.421Z,60.27
2019-01-25T20:36:26.961Z,60.57
2019-01-25T20:39:00.408Z,62.43
2019-01-25T20:41:33.750Z,54.97
2019-01-25T20:44:07.200Z,60.07
2019-01-25T20:46:40.612Z,54.60
2019-01-25T20:49:14.060Z,59.60
2019-01-25T20:51:47.463Z,54.97
2019-01-25T20:54:20.951Z,52.00
2019-01-25T20:56:54.283Z,51.67
2019-01-25T20:59:27.722Z,55.20
2019-01-25T21:02:01.207Z,57.03
2019-01-25T21:04:34.585Z,60.37
2019-01-25T21:07:07.995Z,56.73
2019-01-25T21:09:41.437Z,55.57
2019-01-25T21:12:14.835Z,59.20
2019-01-25T21:14:48.228Z,54.40
2019-01-25T21:17:21.679Z,57.00
2019-01-25T21:19:55.095Z,55.20
2019-01-25T21:22:28.544Z,61.77
2019-01-25T21:25:01.953Z,63.73
2019-01-25T21:27:35.434Z,58.17
2019-01-25T21:30:14.575Z,56.77
2019-01-25T21:32:48.010Z,59.57
2019-01-25T21:35:21.360Z,61.43
2019-01-25T21:37:54.951Z,53.20
2019-01-25T21:40:30.245Z,57.57
2019-01-25T21:43:03.982Z,57.90
2019-01-25T21:45:42.924Z,58.70
2019-01-25T21:48:12.721Z,65.73
2019-01-25T21:50:46.134Z,55.43
2019-01-25T21:53:21.180Z,58.50
2019-01-25T21:55:54.671Z,66.13
2019-01-25T21:58:28.116Z,61.87
2019-01-25T22:01:01.523Z,63.20
2019-01-25T22:03:34.960Z,57.30
2019-01-25T22:06:08.468Z,69.43
2019-01-25T22:08:41.954Z,57.57
2019-01-25T22:11:15.368Z,64.07
2019-01-25T22:13:52.877Z,58.70
2019-01-25T22:16:24.009Z,62.30
2019-01-25T22:18:57.374Z,78.87
2019-01-25T22:21:30.779Z,64.47
2019-01-25T22:24:04.286Z,58.63
2019-01-25T22:26:37.707Z,60.13
2019-01-25T22:29:11.144Z,66.57
2019-01-25T22:31:44.549Z,55.63
2019-01-25T22:34:17.999Z,66.97
2019-01-25T22:36:51.366Z,62.43
2019-01-25T22:39:24.825Z,66.80
2019-01-25T22:41:58.222Z,70.53
2019-01-25T22:44:31.656Z,58.83
2019-01-25T22:47:06.534Z,63.97
2019-01-25T22:49:39.975Z,59.07
2019-01-25T22:52:13.379Z,61.10
2019-01-25T22:54:46.816Z,62.47
2019-01-25T22:57:20.153Z,63.83
2019-01-25T22:59:53.541Z,64.60
2019-01-25T23:02:26.949Z,64.70
2019-01-25T23:05:06.485Z,66.17
2019-01-25T23:07:39.891Z,58.47
2019-01-25T23:10:13.331Z,68.20
2019-01-25T23:12:46.743Z,82.43
2019-01-25T23:15:20.316Z,53.17
2019-01-25T23:17:53.653Z,61.00
2019-01-25T23:20:27.156Z,64.63
2019-01-25T23:23:00.528Z,62.00
2019-01-25T23:25:33.966Z,64.80
2019-01-25T23:28:07.376Z,58.77
2019-01-25T23:30:40.882Z,61.70
2019-01-25T23:33:14.305Z,58.20
2019-01-25T23:35:47.716Z,56.63
2019-01-25T23:38:21.059Z,49.07
2019-01-25T23:40:54.540Z,50.50
2019-01-25T23:43:28.107Z,49.60
2019-01-25T23:46:01.545Z,49.87
2019-01-25T23:48:35.032Z,51.67
2019-01-25T23:51:08.559Z,46.90
2019-01-25T23:53:41.996Z,49.00
2019-01-25T23:56:15.526Z,49.30
2019-01-25T23:58:49.055Z,47.30
